sensor_id;sensor_type;location;lat;lon;timestamp;temperature;humidity
36444;DHT22;24692;45.642;13.806;2022-07-18T00:02:18;24.80;99.90
36444;DHT22;24692;45.642;13.806;2022-07-18T00:04:44;24.80;99.90
36444;DHT22;24692;45.642;13.806;2022-07-18T00:07:10;24.80;99.90
36444;DHT22;24692;45.642;13.806;2022-07-18T00:09:37;24.80;99.90
36444;DHT22;24692;45.642;13.806;2022-07-18T00:12:04;24.80;99.90
36444;DHT22;24692;45.642;13.806;2022-07-18T00:14:30;24.80;99.90
36444;DHT22;24692;45.642;13.806;2022-07-18T00:16:56;24.80;99.90
36444;DHT22;24692;45.642;13.806;2022-07-18T00:19:22;24.80;99.90
36444;DHT22;24692;45.642;13.806;2022-07-18T00:21:48;24.90;99.90
36444;DHT22;24692;45.642;13.806;2022-07-18T00:24:13;24.80;99.90
36444;DHT22;24692;45.642;13.806;2022-07-18T00:26:39;24.90;99.90
36444;DHT22;24692;45.642;13.806;2022-07-18T00:29:05;24.80;99.90
36444;DHT22;24692;45.642;13.806;2022-07-18T00:31:31;24.90;99.90
36444;DHT22;24692;45.642;13.806;2022-07-18T00:33:57;24.90;99.90
36444;DHT22;24692;45.642;13.806;2022-07-18T00:36:22;24.90;99.90
36444;DHT22;24692;45.642;13.806;2022-07-18T00:38:48;24.90;99.90
36444;DHT22;24692;45.642;13.806;2022-07-18T00:41:15;24.80;99.90
36444;DHT22;24692;45.642;13.806;2022-07-18T00:43:41;24.80;99.90
36444;DHT22;24692;45.642;13.806;2022-07-18T00:46:07;24.80;99.90
36444;DHT22;24692;45.642;13.806;2022-07-18T00:48:32;24.80;99.90
36444;DHT22;24692;45.642;13.806;2022-07-18T00:50:58;24.80;99.90
36444;DHT22;24692;45.642;13.806;2022-07-18T00:53:24;24.80;99.90
36444;DHT22;24692;45.642;13.806;2022-07-18T00:55:49;24.80;99.90
36444;DHT22;24692;45.642;13.806;2022-07-18T00:58:17;24.80;99.90
36444;DHT22;24692;45.642;13.806;2022-07-18T01:00:42;24.80;99.90
36444;DHT22;24692;45.642;13.806;2022-07-18T01:03:27;24.70;99.90
36444;DHT22;24692;45.642;13.806;2022-07-18T01:05:53;24.70;99.90
36444;DHT22;24692;45.642;13.806;2022-07-18T01:08:19;24.70;99.90
36444;DHT22;24692;45.642;13.806;2022-07-18T01:10:45;24.70;99.90
36444;DHT22;24692;45.642;13.806;2022-07-18T01:13:10;24.60;99.90
36444;DHT22;24692;45.642;13.806;2022-07-18T01:15:36;24.60;99.90
36444;DHT22;24692;45.642;13.806;2022-07-18T01:18:02;24.60;99.90
36444;DHT22;24692;45.642;13.806;2022-07-18T01:20:29;24.60;99.90
36444;DHT22;24692;45.642;13.806;2022-07-18T01:22:56;24.60;99.90
36444;DHT22;24692;45.642;13.806;2022-07-18T01:25:22;24.50;99.90
36444;DHT22;24692;45.642;13.806;2022-07-18T01:27:48;24.50;99.90
36444;DHT22;24692;45.642;13.806;2022-07-18T01:30:13;24.50;99.90
36444;DHT22;24692;45.642;13.806;2022-07-18T01:32:41;24.50;99.90
36444;DHT22;24692;45.642;13.806;2022-07-18T01:35:07;24.50;99.90
36444;DHT22;24692;45.642;13.806;2022-07-18T01:37:33;24.50;99.90
36444;DHT22;24692;45.642;13.806;2022-07-18T01:39:59;24.50;99.90
36444;DHT22;24692;45.642;13.806;2022-07-18T01:42:24;24.40;99.90
36444;DHT22;24692;45.642;13.806;2022-07-18T01:44:50;24.40;99.90
36444;DHT22;24692;45.642;13.806;2022-07-18T01:47:16;24.50;99.90
36444;DHT22;24692;45.642;13.806;2022-07-18T01:49:42;24.40;99.90
36444;DHT22;24692;45.642;13.806;2022-07-18T01:52:09;24.40;99.90
36444;DHT22;24692;45.642;13.806;2022-07-18T01:54:36;24.40;99.90
36444;DHT22;24692;45.642;13.806;2022-07-18T01:57:04;24.40;99.90
36444;DHT22;24692;45.642;13.806;2022-07-18T01:59:30;24.40;99.90
36444;DHT22;24692;45.642;13.806;2022-07-18T02:01:55;24.40;99.90
36444;DHT22;24692;45.642;13.806;2022-07-18T02:04:21;24.30;99.90
36444;DHT22;24692;45.642;13.806;2022-07-18T02:07:07;24.30;99.90
36444;DHT22;24692;45.642;13.806;2022-07-18T02:09:33;24.30;99.90
36444;DHT22;24692;45.642;13.806;2022-07-18T02:11:59;24.30;99.90
36444;DHT22;24692;45.642;13.806;2022-07-18T02:14:24;24.30;99.90
36444;DHT22;24692;45.642;13.806;2022-07-18T02:16:50;24.30;99.90
36444;DHT22;24692;45.642;13.806;2022-07-18T02:19:15;24.30;99.90
36444;DHT22;24692;45.642;13.806;2022-07-18T02:21:41;24.30;99.90
36444;DHT22;24692;45.642;13.806;2022-07-18T02:24:07;24.30;99.90
36444;DHT22;24692;45.642;13.806;2022-07-18T02:26:33;24.30;99.90
36444;DHT22;24692;45.642;13.806;2022-07-18T02:29:00;24.30;99.90
36444;DHT22;24692;45.642;13.806;2022-07-18T02:31:25;24.30;99.90
36444;DHT22;24692;45.642;13.806;2022-07-18T02:33:51;24.30;99.90
36444;DHT22;24692;45.642;13.806;2022-07-18T02:36:17;24.30;99.90
36444;DHT22;24692;45.642;13.806;2022-07-18T02:38:42;24.30;99.90
36444;DHT22;24692;45.642;13.806;2022-07-18T02:41:08;24.30;99.90
36444;DHT22;24692;45.642;13.806;2022-07-18T02:43:34;24.30;99.90
36444;DHT22;24692;45.642;13.806;2022-07-18T02:45:59;24.20;99.90
36444;DHT22;24692;45.642;13.806;2022-07-18T02:48:25;24.20;99.90
36444;DHT22;24692;45.642;13.806;2022-07-18T02:50:51;24.20;99.90
36444;DHT22;24692;45.642;13.806;2022-07-18T02:53:16;24.20;99.90
36444;DHT22;24692;45.642;13.806;2022-07-18T02:55:44;24.10;99.90
36444;DHT22;24692;45.642;13.806;2022-07-18T02:58:10;24.10;99.90
36444;DHT22;24692;45.642;13.806;2022-07-18T03:00:36;24.10;99.90
36444;DHT22;24692;45.642;13.806;2022-07-18T03:03:01;24.00;99.90
36444;DHT22;24692;45.642;13.806;2022-07-18T03:05:27;24.00;99.90
36444;DHT22;24692;45.642;13.806;2022-07-18T03:07:53;24.00;99.90
36444;DHT22;24692;45.642;13.806;2022-07-18T03:10:18;24.00;99.90
36444;DHT22;24692;45.642;13.806;2022-07-18T03:12:44;24.00;99.90
36444;DHT22;24692;45.642;13.806;2022-07-18T03:15:10;24.00;99.90
36444;DHT22;24692;45.642;13.806;2022-07-18T03:17:36;23.90;99.90
36444;DHT22;24692;45.642;13.806;2022-07-18T03:20:02;23.90;99.90
36444;DHT22;24692;45.642;13.806;2022-07-18T03:22:28;23.90;99.90
36444;DHT22;24692;45.642;13.806;2022-07-18T03:24:53;23.90;99.90
36444;DHT22;24692;45.642;13.806;2022-07-18T03:27:19;23.80;99.90
36444;DHT22;24692;45.642;13.806;2022-07-18T03:29:45;23.80;99.90
36444;DHT22;24692;45.642;13.806;2022-07-18T03:32:10;23.80;99.90
36444;DHT22;24692;45.642;13.806;2022-07-18T03:34:36;23.80;99.90
36444;DHT22;24692;45.642;13.806;2022-07-18T03:37:02;23.80;99.90
36444;DHT22;24692;45.642;13.806;2022-07-18T03:39:27;23.70;99.90
36444;DHT22;24692;45.642;13.806;2022-07-18T03:41:53;23.70;99.90
36444;DHT22;24692;45.642;13.806;2022-07-18T03:44:18;23.70;99.90
36444;DHT22;24692;45.642;13.806;2022-07-18T03:46:44;23.70;99.90
36444;DHT22;24692;45.642;13.806;2022-07-18T03:49:10;23.70;99.90
36444;DHT22;24692;45.642;13.806;2022-07-18T03:51:35;23.70;99.90
36444;DHT22;24692;45.642;13.806;2022-07-18T03:54:01;23.70;99.90
36444;DHT22;24692;45.642;13.806;2022-07-18T03:56:27;23.70;99.90
36444;DHT22;24692;45.642;13.806;2022-07-18T03:58:52;23.80;99.90
36444;DHT22;24692;45.642;13.806;2022-07-18T04:01:18;23.80;99.90
36444;DHT22;24692;45.642;13.806;2022-07-18T04:03:44;23.80;99.90
36444;DHT22;24692;45.642;13.806;2022-07-18T04:06:09;23.70;99.90
36444;DHT22;24692;45.642;13.806;2022-07-18T04:08:35;23.80;99.90
36444;DHT22;24692;45.642;13.806;2022-07-18T04:11:01;23.80;99.90
36444;DHT22;24692;45.642;13.806;2022-07-18T04:13:26;23.80;99.90
36444;DHT22;24692;45.642;13.806;2022-07-18T04:15:52;23.80;99.90
36444;DHT22;24692;45.642;13.806;2022-07-18T04:18:17;23.80;99.90
36444;DHT22;24692;45.642;13.806;2022-07-18T04:20:43;23.80;99.90
36444;DHT22;24692;45.642;13.806;2022-07-18T04:23:10;23.80;99.90
36444;DHT22;24692;45.642;13.806;2022-07-18T04:25:38;23.80;99.90
36444;DHT22;24692;45.642;13.806;2022-07-18T04:28:04;23.80;99.90
36444;DHT22;24692;45.642;13.806;2022-07-18T04:30:31;23.90;99.90
36444;DHT22;24692;45.642;13.806;2022-07-18T04:32:57;23.90;99.90
36444;DHT22;24692;45.642;13.806;2022-07-18T04:35:24;23.90;99.90
36444;DHT22;24692;45.642;13.806;2022-07-18T04:37:51;23.90;99.90
36444;DHT22;24692;45.642;13.806;2022-07-18T04:40:17;23.90;99.90
36444;DHT22;24692;45.642;13.806;2022-07-18T04:42:43;23.90;99.90
36444;DHT22;24692;45.642;13.806;2022-07-18T04:45:09;24.00;99.90
36444;DHT22;24692;45.642;13.806;2022-07-18T04:47:35;24.00;99.90
36444;DHT22;24692;45.642;13.806;2022-07-18T04:50:01;24.00;99.90
36444;DHT22;24692;45.642;13.806;2022-07-18T04:52:27;24.00;99.90
36444;DHT22;24692;45.642;13.806;2022-07-18T04:55:00;24.00;99.90
36444;DHT22;24692;45.642;13.806;2022-07-18T04:57:25;24.10;99.90
36444;DHT22;24692;45.642;13.806;2022-07-18T04:59:51;24.10;99.90
36444;DHT22;24692;45.642;13.806;2022-07-18T05:02:17;24.20;99.90
36444;DHT22;24692;45.642;13.806;2022-07-18T05:04:42;24.20;99.90
36444;DHT22;24692;45.642;13.806;2022-07-18T05:07:08;24.30;99.90
36444;DHT22;24692;45.642;13.806;2022-07-18T05:09:34;24.40;99.90
36444;DHT22;24692;45.642;13.806;2022-07-18T05:11:59;24.40;99.90
36444;DHT22;24692;45.642;13.806;2022-07-18T05:14:25;24.50;99.90
36444;DHT22;24692;45.642;13.806;2022-07-18T05:16:51;24.60;99.90
36444;DHT22;24692;45.642;13.806;2022-07-18T05:19:16;24.60;99.90
36444;DHT22;24692;45.642;13.806;2022-07-18T05:21:43;24.70;99.90
36444;DHT22;24692;45.642;13.806;2022-07-18T05:24:09;24.70;99.90
36444;DHT22;24692;45.642;13.806;2022-07-18T05:26:34;24.70;99.90
36444;DHT22;24692;45.642;13.806;2022-07-18T05:29:00;24.80;99.90
36444;DHT22;24692;45.642;13.806;2022-07-18T05:31:26;24.90;99.90
36444;DHT22;24692;45.642;13.806;2022-07-18T05:33:51;25.00;99.90
36444;DHT22;24692;45.642;13.806;2022-07-18T05:36:17;25.00;99.90
36444;DHT22;24692;45.642;13.806;2022-07-18T05:38:43;25.10;99.90
36444;DHT22;24692;45.642;13.806;2022-07-18T05:41:08;25.10;99.90
36444;DHT22;24692;45.642;13.806;2022-07-18T05:43:34;25.10;99.90
36444;DHT22;24692;45.642;13.806;2022-07-18T05:46:00;25.20;99.90
36444;DHT22;24692;45.642;13.806;2022-07-18T05:48:26;25.20;99.90
36444;DHT22;24692;45.642;13.806;2022-07-18T05:50:52;25.30;99.90
36444;DHT22;24692;45.642;13.806;2022-07-18T05:53:18;25.30;99.90
36444;DHT22;24692;45.642;13.806;2022-07-18T05:55:43;25.40;99.90
36444;DHT22;24692;45.642;13.806;2022-07-18T05:58:09;25.50;99.90
36444;DHT22;24692;45.642;13.806;2022-07-18T06:00:34;25.50;99.90
36444;DHT22;24692;45.642;13.806;2022-07-18T06:03:00;25.60;99.90
36444;DHT22;24692;45.642;13.806;2022-07-18T06:05:26;25.70;99.90
36444;DHT22;24692;45.642;13.806;2022-07-18T06:07:53;25.70;99.90
36444;DHT22;24692;45.642;13.806;2022-07-18T06:10:19;25.80;99.90
36444;DHT22;24692;45.642;13.806;2022-07-18T06:12:45;25.80;99.90
36444;DHT22;24692;45.642;13.806;2022-07-18T06:15:11;25.90;99.90
36444;DHT22;24692;45.642;13.806;2022-07-18T06:17:37;26.00;99.90
36444;DHT22;24692;45.642;13.806;2022-07-18T06:20:03;26.00;99.90
36444;DHT22;24692;45.642;13.806;2022-07-18T06:22:30;26.20;99.90
36444;DHT22;24692;45.642;13.806;2022-07-18T06:24:56;26.30;99.90
36444;DHT22;24692;45.642;13.806;2022-07-18T06:27:22;26.30;99.90
36444;DHT22;24692;45.642;13.806;2022-07-18T06:29:47;26.40;99.90
36444;DHT22;24692;45.642;13.806;2022-07-18T06:32:14;26.40;99.90
36444;DHT22;24692;45.642;13.806;2022-07-18T06:34:41;26.50;99.90
36444;DHT22;24692;45.642;13.806;2022-07-18T06:37:07;26.50;99.90
36444;DHT22;24692;45.642;13.806;2022-07-18T06:39:32;26.50;99.90
36444;DHT22;24692;45.642;13.806;2022-07-18T06:41:58;26.60;99.90
36444;DHT22;24692;45.642;13.806;2022-07-18T06:44:23;26.60;99.90
36444;DHT22;24692;45.642;13.806;2022-07-18T06:46:49;26.80;99.90
36444;DHT22;24692;45.642;13.806;2022-07-18T06:49:17;26.90;99.90
36444;DHT22;24692;45.642;13.806;2022-07-18T06:51:43;27.00;99.90
36444;DHT22;24692;45.642;13.806;2022-07-18T06:54:09;27.10;99.70
36444;DHT22;24692;45.642;13.806;2022-07-18T06:56:35;27.20;99.40
36444;DHT22;24692;45.642;13.806;2022-07-18T06:59:01;27.20;99.60
36444;DHT22;24692;45.642;13.806;2022-07-18T07:01:26;27.30;99.60
36444;DHT22;24692;45.642;13.806;2022-07-18T07:03:52;27.30;99.20
36444;DHT22;24692;45.642;13.806;2022-07-18T07:06:18;27.50;99.10
36444;DHT22;24692;45.642;13.806;2022-07-18T07:08:43;27.50;99.10
36444;DHT22;24692;45.642;13.806;2022-07-18T07:11:09;27.70;98.60
36444;DHT22;24692;45.642;13.806;2022-07-18T07:13:35;27.90;98.60
36444;DHT22;24692;45.642;13.806;2022-07-18T07:16:01;28.10;98.70
36444;DHT22;24692;45.642;13.806;2022-07-18T07:18:26;28.10;98.60
36444;DHT22;24692;45.642;13.806;2022-07-18T07:20:52;28.10;98.10
36444;DHT22;24692;45.642;13.806;2022-07-18T07:23:18;28.20;97.90
36444;DHT22;24692;45.642;13.806;2022-07-18T07:25:43;28.20;98.10
36444;DHT22;24692;45.642;13.806;2022-07-18T07:28:09;28.30;97.90
36444;DHT22;24692;45.642;13.806;2022-07-18T07:30:35;28.50;97.70
36444;DHT22;24692;45.642;13.806;2022-07-18T07:33:01;28.70;97.30
36444;DHT22;24692;45.642;13.806;2022-07-18T07:35:28;28.50;97.00
36444;DHT22;24692;45.642;13.806;2022-07-18T07:37:56;28.50;97.40
36444;DHT22;24692;45.642;13.806;2022-07-18T07:40:27;28.60;97.10
36444;DHT22;24692;45.642;13.806;2022-07-18T07:43:05;28.70;96.90
36444;DHT22;24692;45.642;13.806;2022-07-18T07:45:30;28.80;97.20
36444;DHT22;24692;45.642;13.806;2022-07-18T07:47:56;28.90;96.90
36444;DHT22;24692;45.642;13.806;2022-07-18T07:50:22;28.90;96.80
36444;DHT22;24692;45.642;13.806;2022-07-18T07:52:47;28.90;96.70
36444;DHT22;24692;45.642;13.806;2022-07-18T07:55:13;29.20;96.40
36444;DHT22;24692;45.642;13.806;2022-07-18T07:57:39;29.10;96.40
36444;DHT22;24692;45.642;13.806;2022-07-18T08:00:06;29.20;96.10
36444;DHT22;24692;45.642;13.806;2022-07-18T08:02:32;29.30;96.10
36444;DHT22;24692;45.642;13.806;2022-07-18T08:04:58;29.20;96.10
36444;DHT22;24692;45.642;13.806;2022-07-18T08:07:24;29.30;96.10
36444;DHT22;24692;45.642;13.806;2022-07-18T08:09:50;29.50;96.30
36444;DHT22;24692;45.642;13.806;2022-07-18T08:12:16;29.60;96.00
36444;DHT22;24692;45.642;13.806;2022-07-18T08:14:42;29.50;95.80
36444;DHT22;24692;45.642;13.806;2022-07-18T08:17:07;29.50;95.70
36444;DHT22;24692;45.642;13.806;2022-07-18T08:19:33;29.60;95.90
36444;DHT22;24692;45.642;13.806;2022-07-18T08:21:59;30.10;95.80
36444;DHT22;24692;45.642;13.806;2022-07-18T08:24:25;30.60;95.60
36444;DHT22;24692;45.642;13.806;2022-07-18T08:26:50;31.50;94.90
36444;DHT22;24692;45.642;13.806;2022-07-18T08:29:16;32.20;93.90
36444;DHT22;24692;45.642;13.806;2022-07-18T08:31:42;32.10;93.70
36444;DHT22;24692;45.642;13.806;2022-07-18T08:34:07;32.10;93.40
36444;DHT22;24692;45.642;13.806;2022-07-18T08:36:33;32.50;92.90
36444;DHT22;24692;45.642;13.806;2022-07-18T08:38:59;32.60;92.80
36444;DHT22;24692;45.642;13.806;2022-07-18T08:41:25;32.80;91.80
36444;DHT22;24692;45.642;13.806;2022-07-18T08:43:52;33.30;91.90
36444;DHT22;24692;45.642;13.806;2022-07-18T08:46:20;34.20;91.10
36444;DHT22;24692;45.642;13.806;2022-07-18T08:48:50;34.40;90.40
36444;DHT22;24692;45.642;13.806;2022-07-18T08:51:18;34.80;90.70
36444;DHT22;24692;45.642;13.806;2022-07-18T08:53:46;35.60;90.20
36444;DHT22;24692;45.642;13.806;2022-07-18T08:56:12;36.40;88.00
36444;DHT22;24692;45.642;13.806;2022-07-18T08:58:38;36.60;87.00
36444;DHT22;24692;45.642;13.806;2022-07-18T09:01:03;37.00;85.30
36444;DHT22;24692;45.642;13.806;2022-07-18T09:03:29;36.40;85.40
36444;DHT22;24692;45.642;13.806;2022-07-18T09:06:08;35.60;85.70
36444;DHT22;24692;45.642;13.806;2022-07-18T09:08:35;35.40;86.70
36444;DHT22;24692;45.642;13.806;2022-07-18T09:11:03;35.40;86.60
36444;DHT22;24692;45.642;13.806;2022-07-18T09:13:40;36.00;87.10
36444;DHT22;24692;45.642;13.806;2022-07-18T09:16:10;35.90;84.30
36444;DHT22;24692;45.642;13.806;2022-07-18T09:18:41;35.90;85.40
36444;DHT22;24692;45.642;13.806;2022-07-18T09:21:12;36.60;84.10
36444;DHT22;24692;45.642;13.806;2022-07-18T09:23:46;36.60;84.10
36444;DHT22;24692;45.642;13.806;2022-07-18T09:26:44;37.70;82.10
36444;DHT22;24692;45.642;13.806;2022-07-18T09:29:16;38.20;80.50
36444;DHT22;24692;45.642;13.806;2022-07-18T09:31:49;37.50;80.70
36444;DHT22;24692;45.642;13.806;2022-07-18T09:34:38;36.60;80.80
36444;DHT22;24692;45.642;13.806;2022-07-18T09:37:04;36.50;80.80
36444;DHT22;24692;45.642;13.806;2022-07-18T09:39:30;37.30;80.60
36444;DHT22;24692;45.642;13.806;2022-07-18T09:42:16;38.50;80.20
36444;DHT22;24692;45.642;13.806;2022-07-18T09:44:42;37.80;78.80
36444;DHT22;24692;45.642;13.806;2022-07-18T09:47:07;36.90;78.50
36444;DHT22;24692;45.642;13.806;2022-07-18T09:49:33;36.90;81.10
36444;DHT22;24692;45.642;13.806;2022-07-18T09:52:05;37.70;78.80
36444;DHT22;24692;45.642;13.806;2022-07-18T09:54:42;38.00;78.00
36444;DHT22;24692;45.642;13.806;2022-07-18T09:57:08;38.30;78.20
36444;DHT22;24692;45.642;13.806;2022-07-18T09:59:36;38.00;77.50
36444;DHT22;24692;45.642;13.806;2022-07-18T10:02:05;38.40;77.50
36444;DHT22;24692;45.642;13.806;2022-07-18T10:04:31;39.40;77.90
36444;DHT22;24692;45.642;13.806;2022-07-18T10:06:57;39.90;75.20
36444;DHT22;24692;45.642;13.806;2022-07-18T10:09:23;39.50;75.50
36444;DHT22;24692;45.642;13.806;2022-07-18T10:11:49;39.60;74.20
36444;DHT22;24692;45.642;13.806;2022-07-18T10:14:14;38.90;75.10
36444;DHT22;24692;45.642;13.806;2022-07-18T10:16:41;38.60;75.90
36444;DHT22;24692;45.642;13.806;2022-07-18T10:19:07;38.80;76.00
36444;DHT22;24692;45.642;13.806;2022-07-18T10:21:33;38.40;75.30
36444;DHT22;24692;45.642;13.806;2022-07-18T10:24:00;38.50;77.00
36444;DHT22;24692;45.642;13.806;2022-07-18T10:26:27;37.90;76.40
36444;DHT22;24692;45.642;13.806;2022-07-18T10:31:26;36.80;78.30
36444;DHT22;24692;45.642;13.806;2022-07-18T10:33:54;36.50;78.30
36444;DHT22;24692;45.642;13.806;2022-07-18T10:36:21;36.40;79.80
36444;DHT22;24692;45.642;13.806;2022-07-18T10:57:35;37.00;77.00
36444;DHT22;24692;45.642;13.806;2022-07-18T11:02:39;36.50;78.80
36444;DHT22;24692;45.642;13.806;2022-07-18T11:13:28;41.00;72.80
36444;DHT22;24692;45.642;13.806;2022-07-18T11:16:02;39.40;73.80
36444;DHT22;24692;45.642;13.806;2022-07-18T11:21:26;38.70;73.60
36444;DHT22;24692;45.642;13.806;2022-07-18T11:26:28;39.40;73.50
36444;DHT22;24692;45.642;13.806;2022-07-18T11:29:06;39.60;73.90
36444;DHT22;24692;45.642;13.806;2022-07-18T11:31:53;39.60;72.50
36444;DHT22;24692;45.642;13.806;2022-07-18T11:34:20;38.50;72.40
36444;DHT22;24692;45.642;13.806;2022-07-18T11:36:47;37.60;74.10
36444;DHT22;24692;45.642;13.806;2022-07-18T11:39:14;36.80;75.00
36444;DHT22;24692;45.642;13.806;2022-07-18T11:41:40;37.60;76.00
36444;DHT22;24692;45.642;13.806;2022-07-18T11:44:19;39.00;73.90
36444;DHT22;24692;45.642;13.806;2022-07-18T11:47:11;39.90;71.90
36444;DHT22;24692;45.642;13.806;2022-07-18T11:49:39;40.10;72.30
36444;DHT22;24692;45.642;13.806;2022-07-18T11:52:06;40.30;70.70
36444;DHT22;24692;45.642;13.806;2022-07-18T11:54:32;40.30;70.60
36444;DHT22;24692;45.642;13.806;2022-07-18T11:56:58;40.50;71.20
36444;DHT22;24692;45.642;13.806;2022-07-18T11:59:39;41.30;69.20
36444;DHT22;24692;45.642;13.806;2022-07-18T12:02:05;42.20;68.50
36444;DHT22;24692;45.642;13.806;2022-07-18T12:04:30;41.80;69.30
36444;DHT22;24692;45.642;13.806;2022-07-18T12:09:43;43.50;68.20
36444;DHT22;24692;45.642;13.806;2022-07-18T12:12:10;44.40;66.20
36444;DHT22;24692;45.642;13.806;2022-07-18T12:14:35;43.50;65.40
36444;DHT22;24692;45.642;13.806;2022-07-18T12:17:04;41.90;65.30
36444;DHT22;24692;45.642;13.806;2022-07-18T12:19:38;40.40;67.10
36444;DHT22;24692;45.642;13.806;2022-07-18T12:22:06;39.10;69.50
36444;DHT22;24692;45.642;13.806;2022-07-18T12:24:34;39.40;70.40
36444;DHT22;24692;45.642;13.806;2022-07-18T12:27:19;40.90;68.90
36444;DHT22;24692;45.642;13.806;2022-07-18T12:32:28;41.60;67.10
36444;DHT22;24692;45.642;13.806;2022-07-18T12:35:01;39.80;68.10
36444;DHT22;24692;45.642;13.806;2022-07-18T12:37:28;39.40;69.60
36444;DHT22;24692;45.642;13.806;2022-07-18T12:39:59;40.00;69.10
36444;DHT22;24692;45.642;13.806;2022-07-18T12:42:43;41.10;68.40
36444;DHT22;24692;45.642;13.806;2022-07-18T12:45:11;42.40;68.40
36444;DHT22;24692;45.642;13.806;2022-07-18T12:47:37;42.80;66.20
36444;DHT22;24692;45.642;13.806;2022-07-18T12:50:07;43.60;65.50
36444;DHT22;24692;45.642;13.806;2022-07-18T12:52:33;44.20;64.60
36444;DHT22;24692;45.642;13.806;2022-07-18T12:55:00;43.70;64.00
36444;DHT22;24692;45.642;13.806;2022-07-18T12:57:25;42.30;64.40
36444;DHT22;24692;45.642;13.806;2022-07-18T12:59:51;41.60;65.40
36444;DHT22;24692;45.642;13.806;2022-07-18T13:02:17;41.90;66.20
36444;DHT22;24692;45.642;13.806;2022-07-18T13:04:44;42.70;65.10
36444;DHT22;24692;45.642;13.806;2022-07-18T13:07:10;43.30;64.60
36444;DHT22;24692;45.642;13.806;2022-07-18T13:09:36;43.10;63.60
36444;DHT22;24692;45.642;13.806;2022-07-18T13:12:02;43.30;63.40
36444;DHT22;24692;45.642;13.806;2022-07-18T13:14:28;43.10;63.00
36444;DHT22;24692;45.642;13.806;2022-07-18T13:16:54;41.90;63.70
36444;DHT22;24692;45.642;13.806;2022-07-18T13:19:20;41.50;64.10
36444;DHT22;24692;45.642;13.806;2022-07-18T13:21:47;41.40;63.70
36444;DHT22;24692;45.642;13.806;2022-07-18T13:24:13;41.50;65.20
36444;DHT22;24692;45.642;13.806;2022-07-18T13:26:39;42.30;63.60
36444;DHT22;24692;45.642;13.806;2022-07-18T13:29:05;42.30;63.30
36444;DHT22;24692;45.642;13.806;2022-07-18T13:31:31;42.00;63.90
36444;DHT22;24692;45.642;13.806;2022-07-18T13:33:57;42.80;63.20
36444;DHT22;24692;45.642;13.806;2022-07-18T13:36:23;43.20;62.10
36444;DHT22;24692;45.642;13.806;2022-07-18T13:38:49;42.10;62.20
36444;DHT22;24692;45.642;13.806;2022-07-18T13:41:15;41.30;79.50
36444;DHT22;24692;45.642;13.806;2022-07-18T13:43:41;39.70;86.60
36444;DHT22;24692;45.642;13.806;2022-07-18T13:46:11;38.50;89.30
36444;DHT22;24692;45.642;13.806;2022-07-18T13:48:37;38.30;91.40
36444;DHT22;24692;45.642;13.806;2022-07-18T13:51:04;37.40;92.20
36444;DHT22;24692;45.642;13.806;2022-07-18T13:53:30;37.30;93.00
36444;DHT22;24692;45.642;13.806;2022-07-18T13:55:56;36.90;93.20
36444;DHT22;24692;45.642;13.806;2022-07-18T13:58:22;37.10;93.20
36444;DHT22;24692;45.642;13.806;2022-07-18T14:00:48;37.10;93.10
36444;DHT22;24692;45.642;13.806;2022-07-18T14:03:13;36.30;94.20
36444;DHT22;24692;45.642;13.806;2022-07-18T14:05:39;35.60;95.80
36444;DHT22;24692;45.642;13.806;2022-07-18T14:08:06;35.40;96.60
36444;DHT22;24692;45.642;13.806;2022-07-18T14:10:32;35.00;98.00
36444;DHT22;24692;45.642;13.806;2022-07-18T14:12:59;35.40;97.90
36444;DHT22;24692;45.642;13.806;2022-07-18T14:15:24;36.00;97.50
36444;DHT22;24692;45.642;13.806;2022-07-18T14:17:50;35.90;96.40
36444;DHT22;24692;45.642;13.806;2022-07-18T14:20:16;35.50;97.00
36444;DHT22;24692;45.642;13.806;2022-07-18T14:22:43;35.20;97.30
36444;DHT22;24692;45.642;13.806;2022-07-18T14:25:12;34.80;96.10
36444;DHT22;24692;45.642;13.806;2022-07-18T14:27:39;35.20;96.60
36444;DHT22;24692;45.642;13.806;2022-07-18T14:30:07;35.60;96.60
36444;DHT22;24692;45.642;13.806;2022-07-18T14:32:33;35.70;97.00
36444;DHT22;24692;45.642;13.806;2022-07-18T14:34:58;35.70;96.90
36444;DHT22;24692;45.642;13.806;2022-07-18T14:37:24;35.90;96.60
36444;DHT22;24692;45.642;13.806;2022-07-18T14:39:50;35.90;96.90
36444;DHT22;24692;45.642;13.806;2022-07-18T14:42:15;36.00;96.20
36444;DHT22;24692;45.642;13.806;2022-07-18T14:44:41;35.70;94.80
36444;DHT22;24692;45.642;13.806;2022-07-18T14:47:07;35.00;95.80
36444;DHT22;24692;45.642;13.806;2022-07-18T14:49:33;35.30;95.20
36444;DHT22;24692;45.642;13.806;2022-07-18T14:51:58;35.20;96.00
36444;DHT22;24692;45.642;13.806;2022-07-18T14:54:26;34.50;96.40
36444;DHT22;24692;45.642;13.806;2022-07-18T14:56:53;34.70;96.70
36444;DHT22;24692;45.642;13.806;2022-07-18T14:59:20;34.80;96.10
36444;DHT22;24692;45.642;13.806;2022-07-18T15:01:46;34.90;93.80
36444;DHT22;24692;45.642;13.806;2022-07-18T15:04:12;34.80;93.20
36444;DHT22;24692;45.642;13.806;2022-07-18T15:06:37;34.90;92.60
36444;DHT22;24692;45.642;13.806;2022-07-18T15:09:03;35.20;93.20
36444;DHT22;24692;45.642;13.806;2022-07-18T15:11:29;35.70;90.60
36444;DHT22;24692;45.642;13.806;2022-07-18T15:13:56;35.40;91.10
36444;DHT22;24692;45.642;13.806;2022-07-18T15:16:22;35.20;92.10
36444;DHT22;24692;45.642;13.806;2022-07-18T15:18:47;35.00;92.00
36444;DHT22;24692;45.642;13.806;2022-07-18T15:21:13;34.40;92.40
36444;DHT22;24692;45.642;13.806;2022-07-18T15:23:40;34.20;92.60
36444;DHT22;24692;45.642;13.806;2022-07-18T15:26:06;34.00;91.70
36444;DHT22;24692;45.642;13.806;2022-07-18T15:28:32;34.50;90.90
36444;DHT22;24692;45.642;13.806;2022-07-18T15:30:57;34.70;93.20
36444;DHT22;24692;45.642;13.806;2022-07-18T15:33:24;34.80;92.40
36444;DHT22;24692;45.642;13.806;2022-07-18T15:35:49;34.70;92.80
36444;DHT22;24692;45.642;13.806;2022-07-18T15:38:15;34.60;93.70
36444;DHT22;24692;45.642;13.806;2022-07-18T15:40:41;34.40;91.50
36444;DHT22;24692;45.642;13.806;2022-07-18T15:43:07;34.50;92.90
36444;DHT22;24692;45.642;13.806;2022-07-18T15:45:33;33.80;94.10
36444;DHT22;24692;45.642;13.806;2022-07-18T15:47:58;33.80;95.00
36444;DHT22;24692;45.642;13.806;2022-07-18T15:50:24;33.60;96.00
36444;DHT22;24692;45.642;13.806;2022-07-18T15:52:49;33.60;96.20
36444;DHT22;24692;45.642;13.806;2022-07-18T15:55:15;33.80;96.00
36444;DHT22;24692;45.642;13.806;2022-07-18T15:57:42;33.80;96.20